createdAt,value
2022-12-23T00:00:33.901Z,7.80
2022-12-23T00:02:59.803Z,8.60
2022-12-23T00:05:25.694Z,7.85
2022-12-23T00:07:51.441Z,8.68
2022-12-23T00:10:17.270Z,7.85
2022-12-23T00:13:01.698Z,6.95
2022-12-23T00:15:27.671Z,8.25
2022-12-23T00:17:53.391Z,9.55
2022-12-23T00:20:19.255Z,8.80
2022-12-23T00:23:03.911Z,9.73
2022-12-23T00:25:44.088Z,9.27
2022-12-23T00:28:11.019Z,8.98
2022-12-23T00:30:37.971Z,9.48
2022-12-23T00:33:04.186Z,10.68
2022-12-23T00:35:31.502Z,9.57
2022-12-23T00:37:57.220Z,9.85
2022-12-23T00:40:41.524Z,9.68
2022-12-23T00:43:07.268Z,10.82
2022-12-23T00:45:33.057Z,9.70
2022-12-23T00:48:17.492Z,11.45
2022-12-23T00:50:43.218Z,11.55
2022-12-23T00:53:08.933Z,11.02
2022-12-23T00:55:34.709Z,11.00
2022-12-23T00:58:00.445Z,13.27
2022-12-23T01:00:44.863Z,12.02
2022-12-23T01:03:33.151Z,11.63
2022-12-23T01:05:59.552Z,12.23
2022-12-23T01:08:25.854Z,14.18
2022-12-23T01:10:51.594Z,12.65
2022-12-23T01:13:17.305Z,12.13
2022-12-23T01:15:43.410Z,12.05
2022-12-23T01:18:09.181Z,12.10
2022-12-23T01:20:36.992Z,12.13
2022-12-23T01:23:02.708Z,11.40
2022-12-23T01:25:29.422Z,13.38
2022-12-23T01:27:55.151Z,11.70
2022-12-23T01:30:21.395Z,12.85
2022-12-23T01:32:47.138Z,12.52
2022-12-23T01:35:12.932Z,12.38
2022-12-23T01:37:39.205Z,12.57
2022-12-23T01:40:05.551Z,13.05
2022-12-23T01:42:43.454Z,12.63
2022-12-23T01:45:28.146Z,14.48
2022-12-23T01:47:59.035Z,14.25
2022-12-23T01:53:00.471Z,13.57
2022-12-23T01:55:32.341Z,13.57
2022-12-23T01:58:00.719Z,15.23
2022-12-23T02:00:45.045Z,13.25
2022-12-23T02:03:29.273Z,14.48
2022-12-23T02:06:15.527Z,14.98
2022-12-23T02:09:07.716Z,15.77
2022-12-23T02:11:43.365Z,15.88
2022-12-23T02:14:46.859Z,15.88
2022-12-23T02:17:32.865Z,15.45
2022-12-23T02:20:04.652Z,15.13
2022-12-23T02:22:37.327Z,15.63
2022-12-23T02:25:03.066Z,15.95
2022-12-23T02:27:31.217Z,16.25
2022-12-23T02:30:15.756Z,16.90
2022-12-23T02:32:44.357Z,15.48
2022-12-23T02:35:16.560Z,15.05
2022-12-23T02:38:04.439Z,15.18
2022-12-23T02:40:35.078Z,14.85
2022-12-23T02:43:13.033Z,15.75
2022-12-23T02:45:41.303Z,16.73
2022-12-23T02:48:09.972Z,15.52
2022-12-23T02:50:37.007Z,15.50
2022-12-23T02:53:16.908Z,15.05
2022-12-23T02:55:44.258Z,16.20
2022-12-23T02:58:12.267Z,15.57
2022-12-23T03:00:38.874Z,15.65
2022-12-23T03:03:04.706Z,17.27
2022-12-23T03:05:38.877Z,15.48
2022-12-23T03:08:07.202Z,14.68
2022-12-23T03:10:38.941Z,16.15
2022-12-23T03:13:28.607Z,14.43
2022-12-23T03:15:54.357Z,16.80
2022-12-23T03:18:29.237Z,16.60
2022-12-23T03:21:03.852Z,15.75
2022-12-23T03:23:31.582Z,19.80
2022-12-23T03:26:00.634Z,16.63
2022-12-23T03:28:44.797Z,17.38
2022-12-23T03:31:12.571Z,16.42
2022-12-23T03:33:42.961Z,15.82
2022-12-23T03:36:14.631Z,17.85
2022-12-23T03:38:41.295Z,15.60
2022-12-23T03:41:16.666Z,17.20
2022-12-23T03:43:50.374Z,16.85
2022-12-23T03:46:19.013Z,16.10
2022-12-23T03:48:47.986Z,16.42
2022-12-23T03:51:18.922Z,16.15
2022-12-23T03:53:50.055Z,18.30
2022-12-23T03:56:21.066Z,17.15
2022-12-23T03:58:50.455Z,15.30
2022-12-23T04:01:29.638Z,16.42
2022-12-23T04:04:14.324Z,20.00
2022-12-23T04:06:43.240Z,17.83
2022-12-23T04:09:09.524Z,16.67
2022-12-23T04:11:35.861Z,15.48
2022-12-23T04:14:01.770Z,14.60
2022-12-23T04:16:28.606Z,15.45
2022-12-23T04:18:54.436Z,15.35
2022-12-23T04:21:20.206Z,16.25
2022-12-23T04:23:45.926Z,16.60
2022-12-23T04:26:11.696Z,15.55
2022-12-23T04:28:37.445Z,13.60
2022-12-23T04:31:03.345Z,15.25
2022-12-23T04:33:29.140Z,14.07
2022-12-23T04:35:54.878Z,13.63
2022-12-23T04:38:20.643Z,16.08
2022-12-23T04:40:46.771Z,14.30
2022-12-23T04:43:12.610Z,13.45
2022-12-23T04:45:38.402Z,12.98
2022-12-23T04:48:04.157Z,12.85
2022-12-23T04:50:29.898Z,12.70
2022-12-23T04:52:55.625Z,12.70
2022-12-23T04:55:21.427Z,14.63
2022-12-23T04:57:47.192Z,12.55
2022-12-23T05:00:13.177Z,11.80
2022-12-23T05:02:39.005Z,11.07
2022-12-23T05:05:04.996Z,11.32
2022-12-23T05:07:30.838Z,12.32
2022-12-23T05:10:00.945Z,10.52
2022-12-23T05:12:29.565Z,12.00
2022-12-23T05:14:55.333Z,11.38
2022-12-23T05:17:21.083Z,11.25
2022-12-23T05:19:46.889Z,10.57
2022-12-23T05:22:12.680Z,10.48
2022-12-23T05:24:38.454Z,10.77
2022-12-23T05:27:04.200Z,10.43
2022-12-23T05:29:29.964Z,10.85
2022-12-23T05:31:55.766Z,9.93
2022-12-23T05:34:21.650Z,10.63
2022-12-23T05:36:47.595Z,10.75
2022-12-23T05:39:13.509Z,10.13
2022-12-23T05:41:39.265Z,11.88
2022-12-23T05:44:05.101Z,11.70
2022-12-23T05:46:30.882Z,11.02
2022-12-23T05:48:56.689Z,12.15
2022-12-23T05:51:22.629Z,11.38
2022-12-23T05:53:48.420Z,10.52
2022-12-23T05:56:14.164Z,10.27
2022-12-23T05:58:39.908Z,10.32
2022-12-23T06:01:07.152Z,11.23
2022-12-23T06:03:33.122Z,10.55
2022-12-23T06:05:59.040Z,9.10
2022-12-23T06:08:25.244Z,11.02
2022-12-23T06:10:51.021Z,11.38
2022-12-23T06:13:16.770Z,10.02
2022-12-23T06:15:42.515Z,9.38
2022-12-23T06:18:08.258Z,9.18
2022-12-23T06:20:33.977Z,10.07
2022-12-23T06:22:59.791Z,9.15
2022-12-23T06:25:25.561Z,8.98
2022-12-23T06:27:51.338Z,9.57
2022-12-23T06:30:17.102Z,9.30
2022-12-23T06:32:42.858Z,9.70
2022-12-23T06:35:08.971Z,10.57
2022-12-23T06:37:34.841Z,9.07
2022-12-23T06:40:00.558Z,9.10
2022-12-23T06:42:26.278Z,8.93
2022-12-23T06:44:52.009Z,9.38
2022-12-23T06:47:17.818Z,9.35
2022-12-23T06:49:43.585Z,10.15
2022-12-23T06:52:09.514Z,9.20
2022-12-23T06:54:35.243Z,9.77
2022-12-23T06:57:01.017Z,10.20
2022-12-23T06:59:28.020Z,9.85
2022-12-23T07:23:28.447Z,10.23
2022-12-23T07:25:59.920Z,11.90
2022-12-23T07:28:39.582Z,11.40
2022-12-23T07:31:09.468Z,11.23
2022-12-23T07:36:24.721Z,12.25
2022-12-23T07:38:53.321Z,13.13
2022-12-23T07:46:41.715Z,12.48
2022-12-23T07:49:34.784Z,12.95
2022-12-23T08:06:00.827Z,13.13
2022-12-23T08:11:10.200Z,13.20
2022-12-23T08:30:30.632Z,13.50
2022-12-23T08:46:33.354Z,12.55
2022-12-23T09:00:32.479Z,11.95
2022-12-23T09:08:28.077Z,10.05
2022-12-23T09:19:04.429Z,10.27
2022-12-23T12:13:50.756Z,9.48
2022-12-23T13:40:15.460Z,10.32
2022-12-23T13:42:54.628Z,11.55
2022-12-23T14:06:42.285Z,9.88
2022-12-23T14:09:13.352Z,9.60
2022-12-23T14:11:41.894Z,8.73
2022-12-23T14:14:16.927Z,9.75
2022-12-23T14:19:42.526Z,6.07
2022-12-23T14:47:31.575Z,6.18
2022-12-23T14:55:51.562Z,6.70
2022-12-23T15:01:08.868Z,5.90
2022-12-23T15:03:42.605Z,6.90
2022-12-23T15:06:14.188Z,8.07
2022-12-23T15:11:17.641Z,8.60
2022-12-23T15:13:48.415Z,7.43
2022-12-23T15:19:17.933Z,8.95
2022-12-23T15:21:49.155Z,8.80
2022-12-23T15:24:24.809Z,9.13
2022-12-23T15:27:24.668Z,10.23
2022-12-23T15:29:45.625Z,11.02
2022-12-23T16:01:25.997Z,10.15
2022-12-23T16:03:59.273Z,9.20
2022-12-23T16:06:34.820Z,9.82
2022-12-23T16:14:40.672Z,11.43
2022-12-23T16:17:12.635Z,13.52
2022-12-23T16:19:48.870Z,11.55
2022-12-23T16:25:37.151Z,12.30
2022-12-23T17:05:52.608Z,11.13
2022-12-23T17:08:24.574Z,10.35
2022-12-23T17:10:54.197Z,10.35
2022-12-23T17:16:11.328Z,12.70
2022-12-23T19:31:31.522Z,18.02
2022-12-23T19:33:58.336Z,18.73
2022-12-23T19:36:26.254Z,17.10
2022-12-23T19:38:52.781Z,18.65
2022-12-23T19:41:22.019Z,15.90
2022-12-23T19:43:58.144Z,17.05
2022-12-23T19:46:26.712Z,17.48
2022-12-23T19:48:53.668Z,16.20
2022-12-23T19:51:23.434Z,17.50
2022-12-23T19:53:52.019Z,18.25
2022-12-23T19:56:22.860Z,17.85
2022-12-23T20:01:21.948Z,17.63
2022-12-23T20:03:49.932Z,17.88
2022-12-23T20:06:24.670Z,17.17
2022-12-23T20:08:56.354Z,17.05
2022-12-23T20:11:27.432Z,16.05
2022-12-23T20:13:54.637Z,16.23
2022-12-23T20:16:28.378Z,16.38
2022-12-23T20:18:55.594Z,16.10
2022-12-23T20:21:22.445Z,14.70
2022-12-23T20:24:06.225Z,15.18
2022-12-23T20:26:33.453Z,11.85
2022-12-23T20:29:00.112Z,14.90
2022-12-23T20:31:27.736Z,13.57
2022-12-23T20:33:55.590Z,14.30
2022-12-23T20:36:23.578Z,15.38
2022-12-23T20:38:52.177Z,13.43
2022-12-23T20:41:20.103Z,13.82
2022-12-23T20:44:02.812Z,14.93
2022-12-23T20:46:35.923Z,14.13
2022-12-23T20:49:02.255Z,13.93
2022-12-23T20:51:28.351Z,14.70
2022-12-23T20:53:56.062Z,16.20
2022-12-23T20:56:28.873Z,15.95
2022-12-23T20:58:55.432Z,14.18
2022-12-23T21:01:22.901Z,15.50
2022-12-23T21:03:53.101Z,14.15
2022-12-23T21:06:19.768Z,14.25
2022-12-23T21:08:48.804Z,15.52
2022-12-23T21:11:16.999Z,14.25
2022-12-23T21:13:48.652Z,16.67
2022-12-23T21:16:15.885Z,16.00
2022-12-23T21:18:50.526Z,16.27
2022-12-23T21:21:16.803Z,17.67
2022-12-23T21:24:05.294Z,16.23
2022-12-23T21:26:34.145Z,18.27
2022-12-23T21:29:01.541Z,17.75
2022-12-23T21:34:15.743Z,17.23
2022-12-23T21:36:45.632Z,16.27
2022-12-23T21:41:56.456Z,17.98
2022-12-23T21:44:23.053Z,17.60
2022-12-23T21:46:50.870Z,17.10
2022-12-23T21:49:23.967Z,19.00
2022-12-23T21:51:50.237Z,18.02
2022-12-23T21:54:32.215Z,18.65
2022-12-23T22:02:09.120Z,18.15
2022-12-23T22:04:39.938Z,16.52
2022-12-23T22:09:35.965Z,16.02
2022-12-23T22:12:05.695Z,17.25
2022-12-23T22:14:33.664Z,17.77
2022-12-23T22:17:02.214Z,13.85
2022-12-23T22:19:28.201Z,17.08
2022-12-23T22:21:55.250Z,16.33
2022-12-23T22:24:22.234Z,16.10
2022-12-23T22:26:53.585Z,16.63
2022-12-23T22:29:20.991Z,18.67
2022-12-23T22:31:49.268Z,16.10
2022-12-23T22:34:16.759Z,12.35
2022-12-23T22:36:43.299Z,15.73
2022-12-23T22:39:12.991Z,16.33
2022-12-23T22:41:44.475Z,15.75
2022-12-23T22:44:12.781Z,13.10
2022-12-23T22:49:19.233Z,13.70
2022-12-23T22:51:45.431Z,12.27
2022-12-23T22:54:11.198Z,14.48
2022-12-23T22:56:37.061Z,11.52
2022-12-23T22:59:04.123Z,13.20
2022-12-23T23:01:31.418Z,11.77
2022-12-23T23:03:58.497Z,13.48
2022-12-23T23:06:25.103Z,12.80
2022-12-23T23:08:50.845Z,11.38
2022-12-23T23:11:16.783Z,12.07
2022-12-23T23:13:42.514Z,11.10
2022-12-23T23:18:55.997Z,9.68
2022-12-23T23:21:21.851Z,9.63
2022-12-23T23:23:49.166Z,10.35
2022-12-23T23:26:15.173Z,10.05
2022-12-23T23:28:41.315Z,10.10
2022-12-23T23:33:53.662Z,9.52
2022-12-23T23:36:19.428Z,8.75
2022-12-23T23:38:45.189Z,8.73
2022-12-23T23:41:10.929Z,10.10
2022-12-23T23:43:36.645Z,6.22
2022-12-23T23:46:02.548Z,9.85
2022-12-23T23:48:28.322Z,10.63
2022-12-23T23:51:02.473Z,8.32
2022-12-23T23:53:28.190Z,8.43
2022-12-23T23:55:59.439Z,10.90
2022-12-23T23:58:25.151Z,9.60
